Prime Hook, DE DE USA current weather conditions

sailwx.info

Wind from 222 at 3 knots gusting 6

Last reported at 2019-Dec-09 22:00 UTC.
Time now 2019-Dec-09 23:10 UTC

Location: N 38°50' W 075°15'.
View on Google Maps.

See reports from other nearby stations

  
Tides and Currents Weather Stations Pressure Air Temp Water Temp Dewpoint Dewpoint Depression Visibility Wind Speed Wind Dir Waves Ship Positions
date/time (UTC)wind fromknots sea level pressurealtimeterstation pressurevisibilityair tempwater tempwave heightnotes
2019-Dec-09 22:00 222 3 gusting 6
2019-Dec-09 21:55 215 3 gusting 7
2019-Dec-09 21:50 215 3 gusting 6
2019-Dec-09 21:45 209 3 gusting 5
2019-Dec-09 21:40 215 4 gusting 7
2019-Dec-09 21:35 202 3 gusting 6
2019-Dec-09 21:30 205 3 gusting 6
2019-Dec-09 21:25 220 2 gusting 6
2019-Dec-09 21:20 214 2 gusting 4
2019-Dec-09 21:15 192 3 gusting 5
2019-Dec-09 21:10 181 3 gusting 6
2019-Dec-09 21:05 180 4 gusting 6
2019-Dec-09 21:00 179 3 gusting 4
2019-Dec-09 20:55 177 4 gusting 7
2019-Dec-09 20:50 164 4 gusting 7
2019-Dec-09 20:45 161 4 gusting 6
2019-Dec-09 20:40 167 4 gusting 7
2019-Dec-09 20:35 172 4 gusting 6
2019-Dec-09 20:30 167 4 gusting 6
2019-Dec-09 20:25 173 4 gusting 6
2019-Dec-09 20:20 177 5 gusting 7
2019-Dec-09 20:15 180 3 gusting 5
2019-Dec-09 20:10 183 4 gusting 6
2019-Dec-09 20:05 186 3 gusting 6
2019-Dec-09 20:00 202 3 gusting 4
2019-Dec-09 19:55 202 2 gusting 3
2019-Dec-09 19:50 200 3 gusting 5
2019-Dec-09 19:45 202 3 gusting 6
2019-Dec-09 19:40 202 2 gusting 4
2019-Dec-09 19:35 195 3 gusting 6
2019-Dec-09 19:30 221 2 gusting 4
2019-Dec-09 19:25 225 2 gusting 4
2019-Dec-09 19:20 213 3 gusting 4
2019-Dec-09 19:15 225 2 gusting 5
2019-Dec-09 19:10 228 2 gusting 3
2019-Dec-09 19:05 218 2 gusting 3
2019-Dec-09 19:00 228 1 gusting 3
2019-Dec-09 18:55 231 2 gusting 4
2019-Dec-09 18:50 238 2 gusting 4
2019-Dec-09 18:45 238 2 gusting 3
2019-Dec-09 18:40 248 3 gusting 6
2019-Dec-09 18:35 249 3 gusting 6
2019-Dec-09 18:30 239 3 gusting 6
2019-Dec-09 18:25 248 4 gusting 6
2019-Dec-09 18:20 247 4 gusting 8
2019-Dec-09 18:15 250 3 gusting 6
2019-Dec-09 18:10 254 3 gusting 5
2019-Dec-09 18:05 257 4 gusting 7
2019-Dec-09 18:00 241 5 gusting 8
2019-Dec-09 17:55 250 5 gusting 8
2019-Dec-09 17:50 241 4 gusting 7
2019-Dec-09 17:45 237 4 gusting 7
2019-Dec-09 17:40 237 4 gusting 7
2019-Dec-09 17:35 236 3 gusting 7
2019-Dec-09 17:30 234 4 gusting 7
2019-Dec-09 17:25 223 4 gusting 7
2019-Dec-09 17:20 234 3 gusting 7
2019-Dec-09 17:15 237 4 gusting 7
2019-Dec-09 17:10 243 4 gusting 7
2019-Dec-09 17:05 241 5 gusting 7
2019-Dec-09 17:00 240 3 gusting 7
2019-Dec-09 16:55 231 4 gusting 8
2019-Dec-09 16:50 232 5 gusting 10
2019-Dec-09 16:45 229 5 gusting 11
2019-Dec-09 16:40 236 7 gusting 11
2019-Dec-09 16:35 233 5 gusting 10
2019-Dec-09 16:30 227 5 gusting 10
2019-Dec-09 16:25 232 6 gusting 10
2019-Dec-09 16:20 238 6 gusting 11
2019-Dec-09 16:15 234 6 gusting 9
2019-Dec-09 16:10 223 5 gusting 9
2019-Dec-09 16:05 215 4 gusting 7
2019-Dec-09 16:00 215 5 gusting 9
2019-Dec-09 15:55 214 6 gusting 10
2019-Dec-09 15:50 221 5 gusting 10
2019-Dec-09 15:45 219 5 gusting 9
2019-Dec-09 15:40 216 4 gusting 10
2019-Dec-09 15:35 228 3 gusting 7
2019-Dec-09 15:30 230 6 gusting 9
2019-Dec-09 15:25 219 4 gusting 9
2019-Dec-09 15:20 220 4 gusting 6
2019-Dec-09 15:15 217 4 gusting 8
2019-Dec-09 15:10 225 6 gusting 10
2019-Dec-09 15:05 225 4 gusting 8
2019-Dec-09 15:00 218 5 gusting 9
2019-Dec-09 14:55 209 4 gusting 7
2019-Dec-09 14:50 205 4 gusting 7
2019-Dec-09 14:45 202 4 gusting 8
2019-Dec-09 14:40 208 5 gusting 8
2019-Dec-09 14:35 224 5 gusting 8
2019-Dec-09 14:30 231 5 gusting 8
2019-Dec-09 14:25 232 6 gusting 11
2019-Dec-09 14:20 230 6 gusting 10
2019-Dec-09 14:15 234 7 gusting 14
2019-Dec-09 14:10 241 6 gusting 12
2019-Dec-09 14:05 240 6 gusting 11
2019-Dec-09 14:00 233 6 gusting 12
2019-Dec-09 13:55 222 5 gusting 10
2019-Dec-09 13:50 219 5 gusting 10
2019-Dec-09 13:45 219 6 gusting 12
2019-Dec-09 13:40 213 5 gusting 9
2019-Dec-09 13:35 219 5 gusting 9
2019-Dec-09 13:30 212 5 gusting 10
2019-Dec-09 13:25 213 3 gusting 7
2019-Dec-09 13:20 222 3 gusting 6
2019-Dec-09 13:15 223 3 gusting 6
2019-Dec-09 13:10 228 3 gusting 6
2019-Dec-09 13:05 230 3 gusting 5
2019-Dec-09 13:00 230 3 gusting 6
2019-Dec-09 12:55 239 4 gusting 6
2019-Dec-09 12:50 239 3 gusting 6
2019-Dec-09 12:45 246 3 gusting 4
2019-Dec-09 12:40 241 3 gusting 4
2019-Dec-09 12:35 232 2 gusting 4
2019-Dec-09 12:30 218 2 gusting 5
2019-Dec-09 12:25 216 2 gusting 4
2019-Dec-09 12:20 214 2 gusting 5
2019-Dec-09 12:15 216 2 gusting 4
2019-Dec-09 12:10 211 1 gusting 3
2019-Dec-09 12:05 131 1 gusting 3
2019-Dec-09 12:00 115 1 gusting 3
2019-Dec-09 11:55 121 2 gusting 4
2019-Dec-09 11:50 128 2 gusting 4
2019-Dec-09 11:45 124 2 gusting 4
2019-Dec-09 11:40 124 2 gusting 4
2019-Dec-09 11:35 129 2 gusting 3
2019-Dec-09 11:30 137 1 gusting 2
2019-Dec-09 11:25 142 1 gusting 2
2019-Dec-09 11:20 117 1 gusting 1
2019-Dec-09 11:15 149 0 gusting 0
2019-Dec-09 11:10
2019-Dec-09 11:05
2019-Dec-09 11:00 273 0 gusting 1
2019-Dec-09 10:55 291 0 gusting 1
2019-Dec-09 10:50 276 0 gusting 1
2019-Dec-09 10:45 279 1 gusting 3
2019-Dec-09 10:40 289 1 gusting 2
2019-Dec-09 10:35 270 1 gusting 4
2019-Dec-09 10:30 287 3 gusting 6
2019-Dec-09 10:25 278 2 gusting 4
2019-Dec-09 10:20 261 2 gusting 4
2019-Dec-09 10:15 272 3 gusting 6
2019-Dec-09 10:10 276 2 gusting 5
2019-Dec-09 10:05 305 4 gusting 6
2019-Dec-09 10:00 297 3 gusting 5
2019-Dec-09 09:55 016 1 gusting 1
2019-Dec-09 09:50 039 1 gusting 2
2019-Dec-09 09:45 053 0 gusting 1
2019-Dec-09 09:40 098 1 gusting 5
2019-Dec-09 09:35 048 4 gusting 6
2019-Dec-09 09:30 002 4 gusting 6
2019-Dec-09 09:25 349 3 gusting 5
2019-Dec-09 09:20 330 3 gusting 5
2019-Dec-09 09:15 015 2 gusting 4
2019-Dec-09 09:10 028 3 gusting 4
2019-Dec-09 09:05 011 3 gusting 5
2019-Dec-09 09:00 035 3 gusting 5
2019-Dec-09 08:55 009 3 gusting 4
2019-Dec-09 08:50 002 3 gusting 6
2019-Dec-09 08:45 005 3 gusting 5
2019-Dec-09 08:40 353 3 gusting 4
2019-Dec-09 08:35 007 2 gusting 4
2019-Dec-09 08:30 002 2 gusting 3
2019-Dec-09 08:25 346 3 gusting 5
2019-Dec-09 08:20 002 3 gusting 5
2019-Dec-09 08:15 009 2 gusting 5
2019-Dec-09 08:10 006 2 gusting 3
2019-Dec-09 08:05 010 2 gusting 3
2019-Dec-09 08:00 019 2 gusting 3
2019-Dec-09 07:55 021 2 gusting 4
2019-Dec-09 07:50 013 2 gusting 4
2019-Dec-09 07:45
2019-Dec-09 07:40 359 2 gusting 4
2019-Dec-09 07:35 014 2 gusting 4
2019-Dec-09 07:30 013 2 gusting 3
2019-Dec-09 07:25 006 1 gusting 3
2019-Dec-09 07:20 025 1 gusting 3
2019-Dec-09 07:15 007 2 gusting 3
2019-Dec-09 07:10 011 2 gusting 4
2019-Dec-09 07:05 006 2 gusting 4
2019-Dec-09 07:00 013 2 gusting 3
2019-Dec-09 06:55
2019-Dec-09 06:50 350 1 gusting 2
2019-Dec-09 06:45 010 2 gusting 2
2019-Dec-09 06:40 009 2 gusting 3
2019-Dec-09 06:35 016 1 gusting 2
2019-Dec-09 06:30 010 2 gusting 3
2019-Dec-09 06:25 014 1 gusting 3
2019-Dec-09 06:20 018 2 gusting 3
2019-Dec-09 06:15 013 1 gusting 2
2019-Dec-09 06:10 009 1 gusting 2
2019-Dec-09 06:05 006 1 gusting 2
2019-Dec-09 06:00 008 0 gusting 2
2019-Dec-09 05:55 346 1 gusting 2
2019-Dec-09 05:50 355 1 gusting 3
2019-Dec-09 05:45 355 1 gusting 2
2019-Dec-09 05:40 337 1 gusting 3
2019-Dec-09 05:35 327 0 gusting 2
2019-Dec-09 05:30 326 2 gusting 3
2019-Dec-09 05:25 310 2 gusting 4
2019-Dec-09 05:20 326 2 gusting 3
2019-Dec-09 05:15 332 1 gusting 2
2019-Dec-09 05:10 331 1 gusting 2
2019-Dec-09 05:05 290 1 gusting 2
2019-Dec-09 05:00 312 1 gusting 2
2019-Dec-09 04:55 318 0 gusting 1
2019-Dec-09 04:50 338 0 gusting 1
2019-Dec-09 04:45 027 0 gusting 0
2019-Dec-09 04:40 010 0 gusting 0
2019-Dec-09 04:35 002 0 gusting 0
2019-Dec-09 04:30 002 0 gusting 0
2019-Dec-09 04:25 278 0 gusting 1
2019-Dec-09 04:20 277 0 gusting 1
2019-Dec-09 04:15 340 0 gusting 1
2019-Dec-09 04:10 269 1 gusting 2
2019-Dec-09 04:05 010 1 gusting 3
2019-Dec-09 04:00 015 1 gusting 2
2019-Dec-09 03:55 001 2 gusting 3
2019-Dec-09 03:50 021 2 gusting 3
2019-Dec-09 03:45 010 2 gusting 3
2019-Dec-09 03:40 351 0 gusting 1
2019-Dec-09 03:35 346 1 gusting 1
2019-Dec-09 03:30 359 1 gusting 2
2019-Dec-09 03:25 341 1 gusting 2
2019-Dec-09 03:20 047 0 gusting 2
2019-Dec-09 03:15 352 0 gusting 1
2019-Dec-09 03:10 007 0 gusting 1
2019-Dec-09 03:05 021 1 gusting 2
2019-Dec-09 03:00 016 0 gusting 2
2019-Dec-09 02:55 321 0 gusting 1
2019-Dec-09 02:50 316 1 gusting 2
2019-Dec-09 02:45 327 0 gusting 1
2019-Dec-09 02:40 351 0 gusting 2
2019-Dec-09 02:35 322 1 gusting 2
2019-Dec-09 02:30 344 1 gusting 2
2019-Dec-09 02:25 351 1 gusting 1
2019-Dec-09 02:20 321 1 gusting 1
2019-Dec-09 02:15 294 0 gusting 1
2019-Dec-09 02:10 294 0 gusting 0
2019-Dec-09 02:05 309 0 gusting 1
2019-Dec-09 02:00 329 0 gusting 1
2019-Dec-09 01:55 331 0 gusting 1
2019-Dec-09 01:50 338 0 gusting 1
2019-Dec-09 01:45 352 1 gusting 1
2019-Dec-09 01:40 339 0 gusting 0
2019-Dec-09 01:35 329 0 gusting 1
2019-Dec-09 01:30 285 0 gusting 1
2019-Dec-09 01:25 257 0 gusting 1
2019-Dec-09 01:20 269 1 gusting 1
2019-Dec-09 01:15 272 0 gusting 1
2019-Dec-09 01:10 113 0 gusting 0
2019-Dec-09 01:05 195 0 gusting 1
2019-Dec-09 01:00 187 0 gusting 1
2019-Dec-09 00:55 181 1 gusting 1
2019-Dec-09 00:50 160 0 gusting 1
2019-Dec-09 00:45
2019-Dec-09 00:40 247 0 gusting 0
2019-Dec-09 00:35 247 0 gusting 0
2019-Dec-09 00:30 247 0 gusting 0
2019-Dec-09 00:25 248 0 gusting 1
2019-Dec-09 00:20 248 1 gusting 1
2019-Dec-09 00:15 248 1 gusting 1
2019-Dec-09 00:10 245 1 gusting 1
2019-Dec-09 00:05 230 1 gusting 1
2019-Dec-09 00:00 240 1 gusting 1
2019-Dec-08 23:55 251 1 gusting 1
2019-Dec-08 23:50 259 1 gusting 1
2019-Dec-08 23:45 280 0 gusting 1
2019-Dec-08 23:40
2019-Dec-08 23:35 348 0 gusting 0
2019-Dec-08 23:30 348 0 gusting 0
2019-Dec-08 23:25 152 0 gusting 0
2019-Dec-08 23:20 153 0 gusting 0
2019-Dec-08 23:15
2019-Dec-08 23:10
2019-Dec-08 23:05
2019-Dec-08 23:00
2019-Dec-08 22:55
2019-Dec-08 22:50
2019-Dec-08 22:45
2019-Dec-08 22:40 118 0 gusting 0
2019-Dec-08 22:35 098 1 gusting 1
2019-Dec-08 22:30 098 1 gusting 1
2019-Dec-08 22:25 090 1 gusting 3
2019-Dec-08 22:20 087 1 gusting 2
2019-Dec-08 22:15 101 0 gusting 1
2019-Dec-08 22:10 114 0 gusting 1
2019-Dec-08 22:05 130 0 gusting 1
2019-Dec-08 22:00 114 0 gusting 1
2019-Dec-08 21:55 137 1 gusting 2
2019-Dec-08 21:50 156 2 gusting 3
2019-Dec-08 21:45 155 2 gusting 3
2019-Dec-08 21:40 151 1 gusting 3
2019-Dec-08 21:35 156 2 gusting 2
2019-Dec-08 21:30 158 2 gusting 3
2019-Dec-08 21:25 153 3 gusting 5
2019-Dec-08 21:20 151 3 gusting 5
2019-Dec-08 21:15 145 3 gusting 5
2019-Dec-08 21:10 153 4 gusting 5
2019-Dec-08 21:05 148 3 gusting 6
2019-Dec-08 21:00 156 3 gusting 5
2019-Dec-08 20:55 151 4 gusting 6
2019-Dec-08 20:50 149 5 gusting 8
2019-Dec-08 20:45 148 4 gusting 7
2019-Dec-08 20:40 155 3 gusting 5
2019-Dec-08 20:35 156 5 gusting 7
2019-Dec-08 20:30 151 4 gusting 7
2019-Dec-08 20:25 156 5 gusting 9
2019-Dec-08 20:20 155 5 gusting 8
2019-Dec-08 20:15 152 5 gusting 8
2019-Dec-08 20:10 157 6 gusting 10
2019-Dec-08 20:05 153 5 gusting 8
2019-Dec-08 20:00 149 5 gusting 9
2019-Dec-08 19:55 149 5 gusting 9
2019-Dec-08 19:50 150 6 gusting 10
2019-Dec-08 19:45 137 5 gusting 9
2019-Dec-08 19:40 135 5 gusting 9
2019-Dec-08 19:35 152 5 gusting 9
2019-Dec-08 19:30 134 4 gusting 8
2019-Dec-08 19:25 154 5 gusting 8
2019-Dec-08 19:20 150 6 gusting 9
2019-Dec-08 19:15 155 5 gusting 9
2019-Dec-08 19:10 138 5 gusting 9
2019-Dec-08 19:05 129 4 gusting 8
2019-Dec-08 19:00 133 6 gusting 8
2019-Dec-08 18:55 146 4 gusting 7
2019-Dec-08 18:50 161 5 gusting 9
2019-Dec-08 18:45 151 5 gusting 7
2019-Dec-08 18:40 162 5 gusting 8
2019-Dec-08 18:35 152 5 gusting 7
2019-Dec-08 18:30 166 5 gusting 9
2019-Dec-08 18:25 144 6 gusting 11
2019-Dec-08 18:20 138 5 gusting 9
2019-Dec-08 18:15 145 5 gusting 9
2019-Dec-08 18:10 139 4 gusting 8
2019-Dec-08 18:05 155 5 gusting 8
2019-Dec-08 18:00 144 4 gusting 7
2019-Dec-08 17:55 148 6 gusting 10
2019-Dec-08 17:50 157 6 gusting 10
2019-Dec-08 17:45 158 6 gusting 12
2019-Dec-08 17:40 137 5 gusting 10
2019-Dec-08 17:35 160 5 gusting 10
2019-Dec-08 17:30 157 6 gusting 10
2019-Dec-08 17:25 156 6 gusting 9
2019-Dec-08 17:20 168 5 gusting 8
2019-Dec-08 17:15 172 5 gusting 7
2019-Dec-08 17:10 138 4 gusting 7
2019-Dec-08 17:05 146 5 gusting 8
2019-Dec-08 17:00 157 6 gusting 10
2019-Dec-08 16:55 125 5 gusting 10
2019-Dec-08 16:50 149 4 gusting 11
2019-Dec-08 16:45 148 7 gusting 11
2019-Dec-08 16:40 153 7 gusting 11
2019-Dec-08 16:35 143 5 gusting 10
2019-Dec-08 16:30 154 5 gusting 11
2019-Dec-08 16:25 142 5 gusting 10
2019-Dec-08 16:20 136 5 gusting 10
2019-Dec-08 16:15 144 4 gusting 7
2019-Dec-08 16:10 111 4 gusting 7
2019-Dec-08 16:05 105 6 gusting 14
2019-Dec-08 16:00 124 4 gusting 8
2019-Dec-08 15:55 134 4 gusting 8
2019-Dec-08 15:50 111 5 gusting 9
2019-Dec-08 15:45 098 6 gusting 9
2019-Dec-08 15:40 107 5 gusting 9
2019-Dec-08 15:35 101 5 gusting 8
2019-Dec-08 15:15 101 6 gusting 10
2019-Dec-08 15:10 100 5 gusting 7
2019-Dec-08 15:05 107 6 gusting 9
2019-Dec-08 15:00 101 5 gusting 9
2019-Dec-08 14:55 099 5 gusting 10
2019-Dec-08 14:50 107 4 gusting 8
2019-Dec-08 14:45 105 5 gusting 8
2019-Dec-08 14:40 102 5 gusting 8
2019-Dec-08 14:35 102 6 gusting 9
2019-Dec-08 14:30 112 4 gusting 8
2019-Dec-08 14:25 104 5 gusting 8
2019-Dec-08 14:20 106 5 gusting 8
2019-Dec-08 14:15 103 5 gusting 8
2019-Dec-08 14:10 111 5 gusting 8
2019-Dec-08 14:05 115 3 gusting 7
2019-Dec-08 14:00 103 4 gusting 7
2019-Dec-08 13:55 106 4 gusting 8
2019-Dec-08 13:50 110 4 gusting 7
2019-Dec-08 13:45 107 4 gusting 7
2019-Dec-08 13:40 109 3 gusting 5
2019-Dec-08 13:35 102 2 gusting 6
2019-Dec-08 13:30 136 1 gusting 6
2019-Dec-08 13:25 114 2 gusting 5
2019-Dec-08 13:20 130 1 gusting 3
2019-Dec-08 13:15 134 1 gusting 3
2019-Dec-08 13:10 122 1 gusting 3
2019-Dec-08 13:05 174 0 gusting 1
2019-Dec-08 13:00 182 0 gusting 1
2019-Dec-08 12:55 154 0 gusting 1
2019-Dec-08 12:50 120 0 gusting 2
2019-Dec-08 10:30 073 4 gusting 6
2019-Dec-08 10:25 074 3 gusting 5
2019-Dec-08 10:20 069 4 gusting 5
2019-Dec-08 10:15 072 3 gusting 5
2019-Dec-08 10:10 071 3 gusting 5
2019-Dec-08 10:05 071 4 gusting 6
2019-Dec-08 10:00 070 4 gusting 5
2019-Dec-08 09:55 069 4 gusting 6
2019-Dec-08 09:50 071 4 gusting 7
2019-Dec-08 09:45 069 5 gusting 8
2019-Dec-08 09:40 067 4 gusting 7
2019-Dec-08 09:35 072 5 gusting 8
2019-Dec-08 05:55 070 5 gusting 8
2019-Dec-08 05:50 071 4 gusting 6
2019-Dec-08 05:45 069 4 gusting 7
2019-Dec-08 05:40 066 4 gusting 8
2019-Dec-08 05:35 067 2 gusting 4
2019-Dec-08 05:30 057 2 gusting 4
2019-Dec-08 05:25 031 0 gusting 1
2019-Dec-08 05:20 305 0 gusting 1
2019-Dec-08 05:15 019 0 gusting 1
2019-Dec-08 05:10 295 0 gusting 1
2019-Dec-08 05:05 259 1 gusting 2
2019-Dec-08 05:00 267 1 gusting 2
2019-Dec-08 04:55 238 0 gusting 1
2019-Dec-08 04:50 284 1 gusting 1
2019-Dec-08 04:45 265 1 gusting 2
2019-Dec-08 04:40 246 1 gusting 2
2019-Dec-08 04:35 228 1 gusting 2
2019-Dec-08 04:30 243 1 gusting 2
2019-Dec-08 04:25 233 1 gusting 1
2019-Dec-08 04:20 277 1 gusting 2
2019-Dec-08 03:10 254 2 gusting 2
2019-Dec-08 03:05 263 1 gusting 2
2019-Dec-08 03:00 282 1 gusting 1
2019-Dec-08 02:55 290 1 gusting 2
2019-Dec-08 02:50 283 1 gusting 1
2019-Dec-08 02:45 286 1 gusting 2
2019-Dec-08 02:40 290 1 gusting 1
2019-Dec-08 02:35 277 1 gusting 2
2019-Dec-08 02:30 280 1 gusting 2
2019-Dec-08 02:25 280 1 gusting 2
2019-Dec-08 00:30 280 1 gusting 1
2019-Dec-08 00:25 289 1 gusting 1
2019-Dec-08 00:20 291 1 gusting 2
2019-Dec-08 00:15 283 1 gusting 2
2019-Dec-08 00:10 284 1 gusting 1
2019-Dec-08 00:05 291 1 gusting 2
2019-Dec-08 00:00 295 1 gusting 2
2019-Dec-07 23:55 304 1 gusting 3
2019-Dec-07 23:50 314 1 gusting 2
2019-Dec-07 23:45 320 2 gusting 3
2019-Dec-07 23:40 314 2 gusting 4
2019-Dec-07 23:35 309 2 gusting 3
2019-Dec-07 23:30 316 2 gusting 3
2019-Dec-07 23:10 315 2 gusting 5
2019-Dec-07 23:05 322 2 gusting 4
2019-Dec-07 23:00 320 3 gusting 4